createdAt,value
2018-04-23T00:00:21.314Z,14.40
2018-04-23T00:02:53.813Z,14.30
2018-04-23T00:05:26.053Z,14.20
2018-04-23T00:07:58.834Z,14.10
2018-04-23T00:10:31.114Z,14.00
2018-04-23T00:13:03.354Z,13.90
2018-04-23T00:15:36.074Z,13.90
2018-04-23T00:18:08.334Z,13.90
2018-04-23T00:20:40.573Z,14.00
2018-04-23T00:23:12.775Z,14.00
2018-04-23T00:25:45.036Z,14.00
2018-04-23T00:28:17.198Z,14.00
2018-04-23T00:30:49.414Z,14.20
2018-04-23T00:33:21.554Z,14.10
2018-04-23T00:35:54.513Z,14.00
2018-04-23T00:38:27.494Z,14.00
2018-04-23T00:40:59.717Z,14.00
2018-04-23T00:43:31.833Z,14.00
2018-04-23T00:46:04.354Z,13.90
2018-04-23T00:48:36.644Z,13.90
2018-04-23T00:51:08.861Z,13.80
2018-04-23T00:53:40.987Z,13.90
2018-04-23T00:56:13.259Z,13.80
2018-04-23T00:58:45.441Z,13.70
2018-04-23T01:01:17.734Z,13.70
2018-04-23T01:03:49.934Z,13.60
2018-04-23T01:06:22.134Z,13.60
2018-04-23T01:08:54.394Z,13.70
2018-04-23T01:11:26.613Z,13.70
2018-04-23T01:13:58.836Z,13.70
2018-04-23T01:16:31.034Z,13.70
2018-04-23T01:19:03.253Z,13.70
2018-04-23T01:21:35.414Z,13.80
2018-04-23T01:24:07.655Z,13.70
2018-04-23T01:26:39.874Z,13.50
2018-04-23T01:29:12.193Z,13.50
2018-04-23T01:31:44.414Z,13.50
2018-04-23T01:34:16.656Z,13.40
2018-04-23T01:36:50.174Z,13.30
2018-04-23T01:39:22.333Z,13.20
2018-04-23T01:41:54.483Z,13.10
2018-04-23T01:44:26.703Z,13.10
2018-04-23T01:46:58.885Z,13.10
2018-04-23T01:49:31.984Z,13.10
2018-04-23T01:52:04.184Z,13.20
2018-04-23T01:54:36.464Z,13.20
2018-04-23T01:57:08.643Z,13.10
2018-04-23T01:59:40.844Z,13.10
2018-04-23T02:02:13.084Z,13.10
2018-04-23T02:04:46.044Z,13.00
2018-04-23T02:07:18.223Z,13.30
2018-04-23T02:09:50.466Z,13.30
2018-04-23T02:12:22.745Z,13.20
2018-04-23T02:14:55.723Z,13.20
2018-04-23T02:17:27.984Z,13.10
2018-04-23T02:20:00.183Z,12.90
2018-04-23T02:22:32.303Z,12.90
2018-04-23T02:25:04.624Z,12.90
2018-04-23T02:27:36.925Z,12.80
2018-04-23T02:30:09.192Z,12.80
2018-04-23T02:32:41.344Z,12.80
2018-04-23T02:35:13.464Z,12.80
2018-04-23T02:37:45.611Z,12.90
2018-04-23T02:40:17.826Z,12.90
2018-04-23T02:42:49.964Z,13.00
2018-04-23T02:45:22.245Z,13.00
2018-04-23T02:47:54.405Z,12.80
2018-04-23T02:50:26.624Z,12.80
2018-04-23T02:52:59.171Z,12.70
2018-04-23T02:55:31.465Z,12.50
2018-04-23T02:58:04.390Z,12.60
2018-04-23T03:00:36.616Z,12.60
2018-04-23T03:03:08.785Z,12.60
2018-04-23T03:05:41.668Z,12.70
2018-04-23T03:08:13.823Z,12.60
2018-04-23T03:10:46.004Z,12.60
2018-04-23T03:13:18.183Z,12.60
2018-04-23T03:15:50.304Z,12.60
2018-04-23T03:18:22.785Z,12.60
2018-04-23T03:20:54.923Z,12.50
2018-04-23T03:23:27.184Z,12.40
2018-04-23T03:25:59.263Z,12.30
2018-04-23T03:28:31.516Z,12.20
2018-04-23T03:31:03.643Z,12.30
2018-04-23T03:33:35.884Z,12.50
2018-04-23T03:36:07.963Z,12.50
2018-04-23T03:38:40.484Z,12.60
2018-04-23T03:41:12.624Z,12.40
2018-04-23T03:43:45.365Z,12.40
2018-04-23T03:46:17.544Z,12.40
2018-04-23T03:48:49.864Z,12.30
2018-04-23T03:51:22.765Z,12.50
2018-04-23T03:53:55.083Z,12.50
2018-04-23T03:56:27.585Z,12.50
2018-04-23T03:58:59.884Z,12.50
2018-04-23T04:01:32.065Z,12.60
2018-04-23T04:04:04.364Z,12.50
2018-04-23T04:06:36.605Z,12.50
2018-04-23T04:09:09.025Z,12.50
2018-04-23T04:11:41.285Z,12.50
2018-04-23T04:14:31.544Z,12.50
2018-04-23T04:17:03.843Z,12.60
2018-04-23T04:19:35.951Z,12.50
2018-04-23T04:22:08.125Z,12.40
2018-04-23T04:24:40.328Z,12.40
2018-04-23T04:27:12.568Z,12.50
2018-04-23T04:29:45.685Z,12.80
2018-04-23T04:32:17.865Z,13.10
2018-04-23T04:34:49.974Z,13.20
2018-04-23T04:37:22.504Z,13.20
2018-04-23T04:39:55.766Z,13.20
2018-04-23T04:42:28.044Z,13.20
2018-04-23T04:45:01.124Z,13.20
2018-04-23T04:47:33.425Z,13.30
2018-04-23T04:50:05.665Z,13.30
2018-04-23T04:52:38.025Z,13.30
2018-04-23T04:55:10.286Z,13.40
2018-04-23T04:57:42.524Z,13.50
2018-04-23T05:00:14.948Z,13.70
2018-04-23T05:02:47.205Z,13.90
2018-04-23T05:05:20.166Z,14.00
2018-04-23T05:07:52.406Z,14.20
2018-04-23T05:10:24.645Z,14.40
2018-04-23T05:12:57.285Z,14.70
2018-04-23T05:15:29.425Z,15.20
2018-04-23T05:18:02.025Z,16.00
2018-04-23T05:20:34.204Z,16.50
2018-04-23T05:23:06.704Z,16.90
2018-04-23T05:25:38.944Z,17.30
2018-04-23T05:28:11.123Z,17.60
2018-04-23T05:30:43.406Z,17.90
2018-04-23T05:33:15.584Z,18.10
2018-04-23T05:35:48.306Z,18.60
2018-04-23T05:38:21.224Z,19.10
2018-04-23T05:40:53.861Z,19.60
2018-04-23T05:43:26.304Z,19.90
2018-04-23T05:45:58.527Z,19.90
2018-04-23T05:48:31.005Z,19.70
2018-04-23T05:51:03.164Z,19.30
2018-04-23T05:53:35.404Z,18.60
2018-04-23T05:56:07.712Z,18.30
2018-04-23T05:58:39.983Z,18.30
2018-04-23T06:01:12.443Z,18.30
2018-04-23T06:03:44.623Z,18.20
2018-04-23T06:06:17.143Z,18.00
2018-04-23T06:08:50.383Z,18.00
2018-04-23T06:11:22.957Z,17.80
2018-04-23T06:13:55.123Z,17.80
2018-04-23T06:16:27.344Z,18.10
2018-04-23T06:18:59.623Z,18.00
2018-04-23T06:21:31.782Z,18.30
2018-04-23T06:24:04.064Z,18.40
2018-04-23T06:26:36.241Z,18.40
2018-04-23T06:29:08.421Z,18.60
2018-04-23T06:31:41.481Z,18.80
2018-04-23T06:34:15.828Z,18.80
2018-04-23T06:36:48.022Z,19.00
2018-04-23T06:39:20.342Z,19.20
2018-04-23T06:41:52.584Z,19.20
2018-04-23T06:44:24.811Z,19.20
2018-04-23T06:46:56.982Z,19.20
2018-04-23T06:49:29.462Z,19.40
2018-04-23T06:52:01.641Z,19.30
2018-04-23T06:54:34.302Z,19.70
2018-04-23T06:57:06.480Z,19.90
2018-04-23T06:59:38.763Z,20.00
2018-04-23T07:02:11.723Z,19.90
2018-04-23T07:04:44.325Z,20.10
2018-04-23T07:07:16.558Z,20.40
2018-04-23T07:09:48.884Z,20.30
2018-04-23T07:12:21.043Z,20.10
2018-04-23T07:14:53.283Z,20.30
2018-04-23T07:17:25.563Z,20.40
2018-04-23T07:19:57.823Z,20.10
2018-04-23T07:22:30.144Z,20.20
2018-04-23T07:25:02.664Z,20.40
2018-04-23T07:27:34.924Z,20.60
2018-04-23T07:30:07.622Z,20.80
2018-04-23T07:32:40.602Z,20.80
2018-04-23T07:35:12.805Z,20.90
2018-04-23T07:37:45.083Z,21.00
2018-04-23T07:40:17.244Z,21.10
2018-04-23T07:42:49.345Z,21.30
2018-04-23T07:45:21.485Z,21.60
2018-04-23T07:47:54.135Z,21.50
2018-04-23T07:50:26.404Z,21.50
2018-04-23T07:52:58.505Z,21.50
2018-04-23T07:55:30.804Z,22.00
2018-04-23T07:58:03.085Z,22.30
2018-04-23T08:00:36.005Z,22.40
2018-04-23T08:03:08.235Z,22.50
2018-04-23T08:05:41.228Z,22.70
2018-04-23T08:08:13.507Z,22.60
2018-04-23T08:10:45.743Z,22.30
2018-04-23T08:13:13.005Z,22.40
2018-04-23T08:15:45.243Z,22.10
2018-04-23T08:18:17.465Z,22.60
2018-04-23T08:20:49.762Z,22.40
2018-04-23T08:23:22.147Z,22.50
2018-04-23T08:25:54.343Z,22.70
2018-04-23T08:28:26.543Z,22.70
2018-04-23T08:30:58.743Z,22.90
2018-04-23T08:33:30.982Z,23.00
2018-04-23T08:36:03.082Z,23.20
2018-04-23T08:38:35.286Z,23.30
2018-04-23T08:41:07.447Z,23.30
2018-04-23T08:43:39.704Z,23.60
2018-04-23T08:46:11.864Z,23.70
2018-04-23T08:48:44.124Z,24.00
2018-04-23T08:51:16.285Z,24.10
2018-04-23T08:53:48.524Z,24.30
2018-04-23T08:56:21.284Z,24.40
2018-04-23T08:58:53.525Z,24.80
2018-04-23T09:01:25.689Z,24.80
2018-04-23T09:03:58.625Z,25.10
2018-04-23T09:06:30.786Z,25.50
2018-04-23T09:09:03.966Z,25.60
2018-04-23T09:11:37.288Z,25.50
2018-04-23T09:14:09.865Z,25.50
2018-04-23T09:16:42.001Z,25.80
2018-04-23T09:19:14.208Z,25.80
2018-04-23T09:21:46.504Z,25.90
2018-04-23T09:24:18.825Z,26.00
2018-04-23T09:26:51.345Z,26.30
2018-04-23T09:29:23.627Z,26.60
2018-04-23T09:31:55.824Z,26.90
2018-04-23T09:34:28.091Z,27.10
2018-04-23T09:37:01.024Z,27.00
2018-04-23T09:39:33.208Z,27.10
2018-04-23T09:42:05.424Z,26.80
2018-04-23T09:44:38.172Z,26.90
2018-04-23T09:47:10.385Z,26.80
2018-04-23T09:49:42.646Z,26.90
2018-04-23T09:52:14.845Z,27.10
2018-04-23T09:54:47.064Z,27.20
2018-04-23T09:57:20.045Z,26.90
2018-04-23T09:59:52.965Z,26.90
2018-04-23T10:02:25.245Z,26.90
2018-04-23T10:04:57.404Z,26.90
2018-04-23T10:07:29.663Z,27.00
2018-04-23T10:10:02.386Z,26.60
2018-04-23T10:12:34.588Z,26.90
2018-04-23T10:15:06.784Z,27.10
2018-04-23T10:17:38.985Z,27.30
2018-04-23T10:20:11.265Z,27.30
2018-04-23T10:22:43.545Z,27.30
2018-04-23T10:25:17.345Z,27.20
2018-04-23T10:27:50.306Z,27.70
2018-04-23T10:30:22.545Z,27.70
2018-04-23T10:32:54.963Z,27.80
2018-04-23T10:35:27.242Z,27.60
2018-04-23T10:38:00.288Z,27.90
2018-04-23T10:40:32.523Z,27.80
2018-04-23T10:43:05.322Z,27.70
2018-04-23T10:45:37.566Z,27.40
2018-04-23T10:48:09.866Z,27.30
2018-04-23T10:50:42.163Z,27.20
2018-04-23T10:53:14.402Z,27.00
2018-04-23T10:55:46.515Z,27.30
2018-04-23T10:58:18.756Z,27.30
2018-04-23T11:00:51.014Z,27.40
2018-04-23T11:03:23.515Z,27.50
2018-04-23T11:05:55.635Z,27.50
2018-04-23T11:08:27.934Z,27.60
2018-04-23T11:11:00.255Z,27.40
2018-04-23T11:13:32.556Z,27.60
2018-04-23T11:16:05.074Z,27.20
2018-04-23T11:18:37.314Z,27.30
2018-04-23T11:21:09.835Z,27.50
2018-04-23T11:23:42.134Z,27.30
2018-04-23T11:26:14.374Z,27.50
2018-04-23T11:28:46.554Z,27.20
2018-04-23T11:31:18.774Z,27.30
2018-04-23T11:33:51.054Z,27.50
2018-04-23T11:36:23.274Z,27.00
2018-04-23T11:38:55.555Z,27.20
2018-04-23T11:41:28.180Z,27.50
2018-04-23T11:44:00.454Z,27.50
2018-04-23T11:46:32.698Z,27.80
2018-04-23T11:49:04.874Z,27.70
2018-04-23T11:51:37.153Z,27.70
2018-04-23T11:54:09.414Z,27.80
2018-04-23T11:56:41.754Z,27.80
2018-04-23T11:59:14.514Z,27.30
2018-04-23T12:01:46.774Z,27.80
2018-04-23T12:04:18.994Z,27.90
2018-04-23T12:06:51.442Z,28.10
2018-04-23T12:09:24.515Z,28.10
2018-04-23T12:11:57.014Z,28.00
2018-04-23T12:14:29.214Z,28.10
2018-04-23T12:17:01.416Z,28.00
2018-04-23T12:19:33.676Z,28.10
2018-04-23T12:22:05.800Z,28.00
2018-04-23T12:24:38.854Z,28.00
2018-04-23T12:27:11.074Z,28.20
2018-04-23T12:29:43.563Z,28.50
2018-04-23T12:32:15.814Z,28.30
2018-04-23T12:34:48.054Z,28.20
2018-04-23T12:37:20.234Z,27.90
2018-04-23T12:39:52.554Z,27.80
2018-04-23T12:42:24.777Z,27.60
2018-04-23T12:44:57.055Z,27.80
2018-04-23T12:47:29.255Z,27.70
2018-04-23T12:50:01.555Z,27.70
2018-04-23T12:52:33.774Z,27.80
2018-04-23T12:55:06.175Z,28.10
2018-04-23T12:57:38.439Z,28.30
2018-04-23T13:00:11.775Z,28.50
2018-04-23T13:02:44.075Z,28.20
2018-04-23T13:05:16.355Z,28.40
2018-04-23T13:07:48.817Z,28.30
2018-04-23T13:10:21.114Z,28.30
2018-04-23T13:12:53.754Z,28.20
2018-04-23T13:15:25.957Z,28.40
2018-04-23T13:17:58.155Z,28.50
2018-04-23T13:20:30.754Z,28.30
2018-04-23T13:23:03.035Z,28.00
2018-04-23T13:25:35.334Z,28.10
2018-04-23T13:28:07.414Z,28.10
2018-04-23T13:30:39.615Z,28.00
2018-04-23T13:33:11.861Z,28.20
2018-04-23T13:35:44.094Z,28.10
2018-04-23T13:38:16.316Z,28.30
2018-04-23T13:40:48.535Z,28.30
2018-04-23T13:43:20.775Z,28.50
2018-04-23T13:45:53.738Z,28.20
2018-04-23T13:48:25.934Z,28.00
2018-04-23T13:50:58.915Z,28.20
2018-04-23T13:53:31.174Z,28.60
2018-04-23T13:56:03.414Z,28.30
2018-04-23T13:58:36.453Z,28.10
2018-04-23T14:01:08.674Z,28.00
2018-04-23T14:03:41.014Z,28.10
2018-04-23T14:06:13.214Z,28.50
2018-04-23T14:08:45.954Z,28.30
2018-04-23T14:11:13.094Z,28.30
2018-04-23T14:13:45.395Z,28.40
2018-04-23T14:16:17.573Z,28.50
2018-04-23T14:18:49.900Z,28.50
2018-04-23T14:21:22.535Z,28.30
2018-04-23T14:23:54.803Z,28.10
2018-04-23T14:26:22.079Z,28.30
2018-04-23T14:29:05.821Z,28.20
2018-04-23T14:31:37.954Z,28.10
2018-04-23T14:34:10.094Z,28.10
2018-04-23T14:36:42.328Z,28.10
2018-04-23T14:39:14.588Z,27.80
2018-04-23T14:41:46.989Z,27.80
2018-04-23T14:44:20.066Z,27.60
2018-04-23T14:46:52.452Z,27.40
2018-04-23T14:49:25.029Z,27.50
2018-04-23T14:51:57.927Z,27.60
2018-04-23T14:54:30.187Z,27.60
2018-04-23T14:57:03.136Z,27.60
2018-04-23T14:59:35.368Z,27.50
2018-04-23T15:02:07.944Z,27.10
2018-04-23T15:04:40.143Z,26.80
2018-04-23T15:07:12.543Z,26.70
2018-04-23T15:09:44.824Z,26.40
2018-04-23T15:12:17.465Z,26.20
2018-04-23T15:14:50.359Z,26.10
2018-04-23T15:17:22.587Z,25.90
2018-04-23T15:19:54.812Z,25.90
2018-04-23T15:22:27.872Z,25.90
2018-04-23T15:25:00.132Z,25.90
2018-04-23T15:27:32.352Z,25.90
2018-04-23T15:30:04.552Z,25.90
2018-04-23T15:32:36.692Z,26.00
2018-04-23T15:35:08.854Z,26.10
2018-04-23T15:37:41.152Z,26.30
2018-04-23T15:40:13.472Z,26.50
2018-04-23T15:42:45.673Z,26.60
2018-04-23T15:45:17.952Z,26.60
2018-04-23T15:47:50.132Z,26.60
2018-04-23T15:50:22.432Z,27.00
2018-04-23T15:52:54.592Z,27.10
2018-04-23T15:55:26.872Z,27.40
2018-04-23T15:57:59.336Z,27.20
2018-04-23T16:00:31.636Z,27.20
2018-04-23T16:03:03.872Z,26.90
2018-04-23T16:05:36.073Z,26.50
2018-04-23T16:08:08.292Z,26.50
2018-04-23T16:10:40.533Z,26.40
2018-04-23T16:13:12.712Z,26.20
2018-04-23T16:15:44.992Z,26.20
2018-04-23T16:18:17.125Z,26.10
2018-04-23T16:20:49.213Z,26.00
2018-04-23T16:23:21.492Z,26.00
2018-04-23T16:25:53.692Z,25.90
2018-04-23T16:28:25.974Z,25.80
2018-04-23T16:30:58.433Z,25.70
2018-04-23T16:33:30.653Z,25.70
2018-04-23T16:36:02.873Z,25.60
2018-04-23T16:38:35.132Z,25.60
2018-04-23T16:41:07.332Z,25.70
2018-04-23T16:43:40.312Z,25.70
2018-04-23T16:46:12.512Z,25.70
2018-04-23T16:48:58.812Z,25.70
2018-04-23T16:51:30.952Z,25.70
2018-04-23T16:54:03.273Z,25.70
2018-04-23T16:56:35.495Z,25.70
2018-04-23T16:59:07.728Z,25.70
2018-04-23T17:01:39.818Z,25.60
2018-04-23T17:04:12.694Z,25.60
2018-04-23T17:06:45.633Z,25.60
2018-04-23T17:09:17.918Z,25.60
2018-04-23T17:11:50.173Z,25.60
2018-04-23T17:14:22.313Z,25.50
2018-04-23T17:16:54.533Z,25.40
2018-04-23T17:19:26.754Z,25.30
2018-04-23T17:21:59.102Z,25.10
2018-04-23T17:24:32.136Z,24.90
2018-04-23T17:27:04.393Z,24.80
2018-04-23T17:29:37.415Z,24.60
2018-04-23T17:32:09.853Z,24.40
2018-04-23T17:34:42.093Z,24.30
2018-04-23T17:37:14.353Z,24.10
2018-04-23T17:39:46.613Z,24.00
2018-04-23T17:42:19.522Z,23.80
2018-04-23T17:44:51.816Z,23.60
2018-04-23T17:47:23.980Z,23.50
2018-04-23T17:49:56.254Z,23.30
2018-04-23T17:52:28.454Z,23.30
2018-04-23T17:55:00.694Z,23.50
2018-04-23T17:57:33.656Z,23.50
2018-04-23T18:00:05.975Z,23.50
2018-04-23T18:02:38.095Z,23.50
2018-04-23T18:05:10.507Z,23.60
2018-04-23T18:07:42.725Z,23.70
2018-04-23T18:10:15.312Z,23.60
2018-04-23T18:12:47.571Z,23.70
2018-04-23T18:15:28.314Z,23.50
2018-04-23T18:18:02.297Z,23.50
2018-04-23T18:20:34.689Z,23.50
2018-04-23T18:23:06.880Z,23.50
2018-04-23T18:25:39.168Z,23.40
2018-04-23T18:28:12.088Z,23.40
2018-04-23T18:30:44.469Z,23.40
2018-04-23T18:33:17.069Z,23.40
2018-04-23T18:35:49.329Z,23.40
2018-04-23T18:38:21.568Z,23.30
2018-04-23T18:40:53.770Z,23.20
2018-04-23T18:43:25.948Z,23.20
2018-04-23T18:45:58.108Z,23.10
2018-04-23T18:48:30.308Z,23.00
2018-04-23T18:51:02.569Z,22.90
2018-04-23T18:53:34.809Z,22.90
2018-04-23T18:56:07.122Z,22.80
2018-04-23T18:58:39.928Z,22.70
2018-04-23T19:01:12.393Z,22.70
2018-04-23T19:03:44.772Z,22.70
2018-04-23T19:06:17.442Z,22.60
2018-04-23T19:08:49.731Z,22.60
2018-04-23T19:11:21.990Z,22.60
2018-04-23T19:13:54.329Z,22.50
2018-04-23T19:16:26.989Z,22.40
2018-04-23T19:18:59.311Z,22.40
2018-04-23T19:21:31.771Z,22.30
2018-04-23T19:24:04.170Z,22.40
2018-04-23T19:26:36.430Z,22.40
2018-04-23T19:31:41.595Z,22.00
2018-04-23T19:34:14.604Z,21.80
2018-04-23T19:36:46.929Z,21.60
2018-04-23T19:39:19.209Z,21.30
2018-04-23T19:41:51.613Z,21.10
2018-04-23T19:44:23.872Z,20.80
2018-04-23T19:46:56.616Z,20.60
2018-04-23T19:49:29.550Z,20.40
2018-04-23T19:52:01.849Z,20.10
2018-04-23T19:54:34.963Z,19.90
2018-04-23T19:57:07.832Z,19.60
2018-04-23T19:59:40.282Z,19.50
2018-04-23T20:02:12.623Z,19.40
2018-04-23T20:04:44.842Z,19.30
2018-04-23T20:07:17.016Z,19.20
2018-04-23T20:09:50.063Z,19.20
2018-04-23T20:12:22.403Z,19.10
2018-04-23T20:14:54.897Z,19.00
2018-04-23T20:17:27.023Z,18.90
2018-04-23T20:19:59.982Z,18.70
2018-04-23T20:22:32.183Z,18.60
2018-04-23T20:25:04.561Z,18.50
2018-04-23T20:27:36.822Z,18.30
2018-04-23T20:30:09.710Z,18.30
2018-04-23T20:32:41.923Z,18.10
2018-04-23T20:35:14.269Z,18.00
2018-04-23T20:37:46.492Z,18.00
2018-04-23T20:40:18.802Z,17.90
2018-04-23T20:42:51.102Z,17.90
2018-04-23T20:45:23.322Z,17.80
2018-04-23T20:47:55.597Z,17.70
2018-04-23T20:50:27.903Z,17.70
2018-04-23T20:53:00.843Z,17.80
2018-04-23T20:55:33.085Z,17.70
2018-04-23T20:58:05.322Z,17.80
2018-04-23T21:00:37.462Z,17.80
2018-04-23T21:03:09.782Z,17.70
2018-04-23T21:05:42.094Z,17.70
2018-04-23T21:08:15.302Z,17.60
2018-04-23T21:10:47.583Z,17.60
2018-04-23T21:13:19.707Z,17.70
2018-04-23T21:15:51.963Z,17.60
2018-04-23T21:18:24.103Z,17.60
2018-04-23T21:20:56.424Z,17.50
2018-04-23T21:23:29.064Z,17.40
2018-04-23T21:26:01.478Z,17.40
2018-04-23T21:28:33.723Z,17.40
2018-04-23T21:31:05.983Z,17.40
2018-04-23T21:33:38.224Z,17.30
2018-04-23T21:36:10.503Z,17.30
2018-04-23T21:38:42.743Z,17.30
2018-04-23T21:41:15.383Z,17.30
2018-04-23T21:43:47.563Z,17.20
2018-04-23T21:46:19.694Z,17.20
2018-04-23T21:48:51.924Z,17.30
2018-04-23T21:51:24.143Z,17.30
2018-04-23T21:53:56.824Z,17.30
2018-04-23T21:56:29.091Z,17.20
2018-04-23T21:59:01.504Z,17.20
2018-04-23T22:01:33.764Z,17.20
2018-04-23T22:04:06.109Z,17.20
2018-04-23T22:06:38.644Z,17.10
2018-04-23T22:09:10.826Z,17.20
2018-04-23T22:11:43.165Z,17.20
2018-04-23T22:14:16.124Z,17.10
2018-04-23T22:16:48.693Z,17.00
2018-04-23T22:19:20.790Z,17.00
2018-04-23T22:21:53.004Z,17.00
2018-04-23T22:24:25.234Z,17.00
2018-04-23T22:26:57.506Z,16.90
2018-04-23T22:29:29.683Z,16.90
2018-04-23T22:32:01.929Z,16.80
2018-04-23T22:34:34.164Z,16.70
2018-04-23T22:37:06.764Z,16.70
2018-04-23T22:39:38.926Z,16.70
2018-04-23T22:42:11.092Z,16.70
2018-04-23T22:44:43.664Z,16.70
2018-04-23T22:47:15.924Z,16.70
2018-04-23T22:49:48.684Z,16.60
2018-04-23T22:52:20.824Z,16.50
2018-04-23T22:54:52.984Z,16.50
2018-04-23T22:57:25.245Z,16.60
2018-04-23T22:59:57.495Z,16.50
2018-04-23T23:02:29.755Z,16.40
2018-04-23T23:05:02.097Z,16.40
2018-04-23T23:07:34.273Z,16.50
2018-04-23T23:10:06.653Z,16.40
2018-04-23T23:12:38.853Z,16.50
2018-04-23T23:15:11.812Z,16.30
2018-04-23T23:17:44.157Z,16.30
2018-04-23T23:20:16.532Z,16.30
2018-04-23T23:22:48.728Z,16.30
2018-04-23T23:25:22.213Z,16.30
2018-04-23T23:27:55.614Z,16.30
2018-04-23T23:30:41.373Z,16.30
2018-04-23T23:33:14.014Z,16.30
2018-04-23T23:35:46.236Z,16.30
2018-04-23T23:38:19.193Z,16.30
2018-04-23T23:40:51.394Z,16.20
2018-04-23T23:43:23.573Z,16.20
2018-04-23T23:45:56.373Z,16.30
2018-04-23T23:48:28.473Z,16.20
2018-04-23T23:51:00.713Z,16.20
2018-04-23T23:53:32.973Z,16.30
2018-04-23T23:56:05.176Z,16.20
2018-04-23T23:58:37.374Z,16.20
